Weather reports worldwide

Advertisment
Vipiteno, Italy (16014): temperature & dewpoint: 14.06.2018 11:00:00 - 20.06.2018 11:00:00 (CEST)Vipiteno, Italy (16014): wind speed: 14.06.2018 11:00:00 - 20.06.2018 11:00:00 (CEST)Vipiteno, Italy (16014): wind direction: 14.06.2018 11:00:00 - 20.06.2018 11:00:00 (CEST)Vipiteno, Italy (16014): precipitation: 14.06.2018 11:00:00 - 20.06.2018 11:00:00 (CEST)
Date & Time tt [°C] td [°C] ff [km/h] ff [kn] dd rr [mm]
20.06.2018 11:00:00 - - - - - -
20.06.2018 10:00:00 18,2 11,9 2 1 NNE -
20.06.2018 09:00:00 15,6 11,1 2 1 NNW -
20.06.2018 08:00:00 12,5 10,9 2 1 NNE 0,0
20.06.2018 07:00:00 9,9 7,5 2 1 NE -
20.06.2018 06:00:00 9,9 7,1 2 1 WNW -
20.06.2018 05:00:00 10,4 6,9 2 1 W -
20.06.2018 04:00:00 11,4 7,7 5 3 W -
20.06.2018 03:00:00 11,9 7,4 2 1 NW -
20.06.2018 02:00:00 13,1 8,1 4 2 WSW 0,0
20.06.2018 01:00:00 14,0 8,1 8 4 NNW -
20.06.2018 00:00:00 15,1 8,3 9 5 W -
19.06.2018 23:00:00 16,7 8,3 5 3 W -
19.06.2018 22:00:00 18,6 8,2 5 3 W -
19.06.2018 21:00:00 20,1 8,1 5 3 NNE -
19.06.2018 20:00:00 21,7 8,2 5 3 SW 0,0
19.06.2018 19:00:00 22,3 8,0 9 5 E -
19.06.2018 18:00:00 22,5 8,5 11 6 NW -
19.06.2018 17:00:00 22,7 7,6 11 6 WSW -
19.06.2018 16:00:00 22,5 7,8 5 3 E -
19.06.2018 15:00:00 21,7 9,2 15 8 N -
19.06.2018 14:00:00 21,2 8,4 18 10 N 0,0
19.06.2018 13:00:00 20,8 7,0 13 7 N -
19.06.2018 12:00:00 20,0 8,6 13 7 NW -
19.06.2018 11:00:00 19,0 7,7 15 8 NNW -
19.06.2018 10:00:00 18,2 8,9 8 4 NW -
19.06.2018 09:00:00 16,8 8,4 11 6 NW -
19.06.2018 08:00:00 13,5 9,3 9 5 S 0,0
19.06.2018 07:00:00 10,5 7,5 9 5 WNW -
19.06.2018 06:00:00 9,5 7,1 5 3 W -
19.06.2018 05:00:00 9,6 6,6 4 2 W -
19.06.2018 04:00:00 9,7 6,7 8 4 NW -
19.06.2018 03:00:00 9,7 5,4 5 3 NW -
19.06.2018 02:00:00 11,4 7,1 8 4 W 0,0
19.06.2018 01:00:00 - - - - - -
19.06.2018 00:00:00 12,8 7,6 9 5 WSW -
18.06.2018 23:00:00 14,4 7,6 8 4 W -
18.06.2018 22:00:00 15,8 8,2 15 8 NW -
18.06.2018 21:00:00 16,3 8,5 15 8 NW -
18.06.2018 20:00:00 16,6 8,2 18 10 NW 0,0
18.06.2018 19:00:00 17,3 7,3 24 13 WNW -
18.06.2018 18:00:00 17,9 8,1 22 12 NW -
18.06.2018 17:00:00 19,1 8,1 13 7 NNW -
18.06.2018 16:00:00 18,7 6,5 15 8 NNW -
18.06.2018 15:00:00 18,9 7,0 9 5 WNW -
18.06.2018 14:00:00 18,1 6,8 15 8 NW 0,0
18.06.2018 13:00:00 18,3 7,6 18 10 NNW -
18.06.2018 12:00:00 18,7 7,7 18 10 NNW -
18.06.2018 11:00:00 18,1 7,7 13 7 WNW -
18.06.2018 10:00:00 16,8 9,2 16 9 WNW -
18.06.2018 09:00:00 15,1 9,8 11 6 NW -
18.06.2018 08:00:00 12,8 11,0 11 6 WNW -
18.06.2018 07:00:00 11,9 10,3 11 6 W -
18.06.2018 06:00:00 11,7 10,1 9 5 NNW -
18.06.2018 05:00:00 11,9 10,3 9 5 W -
18.06.2018 04:00:00 11,9 10,3 5 3 W -
18.06.2018 03:00:00 12,1 10,5 2 1 SW -
18.06.2018 02:00:00 12,4 10,4 4 2 SSE -
18.06.2018 01:00:00 13,3 9,5 11 6 W -
18.06.2018 00:00:00 16,0 8,4 24 13 NNW -
17.06.2018 23:00:00 17,3 8,9 15 8 NNW -
17.06.2018 22:00:00 17,0 8,4 18 10 NW -
17.06.2018 21:00:00 17,9 7,0 13 7 NNW -
17.06.2018 20:00:00 19,1 6,2 22 12 NW 0,0
17.06.2018 19:00:00 21,2 7,0 15 8 N -
17.06.2018 18:00:00 21,4 6,4 13 7 NW -
17.06.2018 17:00:00 21,1 5,4 8 4 WNW -
17.06.2018 16:00:00 22,0 5,4 4 2 S -
17.06.2018 15:00:00 20,1 4,9 13 7 NNW -
17.06.2018 14:00:00 20,2 5,4 13 7 WNW 0,0
17.06.2018 13:00:00 20,3 5,4 5 3 NW -
17.06.2018 12:00:00 19,9 5,1 15 8 NW -
17.06.2018 11:00:00 20,0 5,6 5 3 WNW -
17.06.2018 10:00:00 18,2 6,6 9 5 WSW -
17.06.2018 09:00:00 16,7 9,1 5 3 SW -
17.06.2018 08:00:00 12,2 10,2 4 2 WNW 0,0
17.06.2018 07:00:00 8,6 5,8 0 0 N -
17.06.2018 06:00:00 8,5 5,0 0 0 N -
17.06.2018 05:00:00 9,1 4,7 4 2 WSW -
17.06.2018 04:00:00 11,5 6,6 5 3 SSE -
17.06.2018 03:00:00 11,7 6,1 5 3 W -
17.06.2018 02:00:00 12,5 6,5 8 4 NE 0,0
17.06.2018 01:00:00 13,3 6,3 11 6 NW -
17.06.2018 00:00:00 15,6 6,2 11 6 WSW -
16.06.2018 23:00:00 17,1 5,9 8 4 WSW -
16.06.2018 22:00:00 17,7 5,5 5 3 W -
16.06.2018 21:00:00 18,7 5,4 8 4 NNE -
16.06.2018 20:00:00 20,4 3,9 13 7 WNW 0,0
16.06.2018 19:00:00 21,4 4,0 15 8 NW -
16.06.2018 18:00:00 22,0 4,0 13 7 NNW -
16.06.2018 17:00:00 21,9 3,5 18 10 N -
16.06.2018 16:00:00 21,7 4,7 16 9 NNW -
16.06.2018 15:00:00 21,4 3,5 18 10 N -
16.06.2018 14:00:00 20,8 1,6 18 10 NNW 0,0
16.06.2018 13:00:00 20,1 3,3 18 10 NW -
16.06.2018 12:00:00 19,2 3,7 16 9 NNW -
16.06.2018 11:00:00 18,4 1,3 9 5 NNW -
16.06.2018 10:00:00 16,1 9,0 5 3 ENE -
16.06.2018 09:00:00 13,5 8,7 2 1 ENE -
16.06.2018 08:00:00 10,0 8,1 4 2 NE 0,0
16.06.2018 07:00:00 6,7 3,5 0 0 N -
16.06.2018 06:00:00 7,9 4,3 0 0 N -
16.06.2018 05:00:00 8,7 4,5 8 4 WNW -
16.06.2018 04:00:00 8,9 4,5 8 4 N -
16.06.2018 03:00:00 9,7 4,8 9 5 NW -
16.06.2018 02:00:00 11,1 5,8 13 7 WSW 0,0
16.06.2018 01:00:00 11,5 5,1 13 7 WSW -
16.06.2018 00:00:00 13,2 5,3 11 6 W -
15.06.2018 23:00:00 14,4 5,1 8 4 WNW -
15.06.2018 22:00:00 15,6 5,1 9 5 NW -
15.06.2018 21:00:00 17,3 5,2 8 4 W -
15.06.2018 20:00:00 18,9 3,0 16 9 WNW 0,0
15.06.2018 19:00:00 19,9 2,2 15 8 NE -
15.06.2018 18:00:00 20,3 3,4 9 5 NNE -
15.06.2018 17:00:00 20,3 3,4 15 8 NNW -
15.06.2018 16:00:00 20,5 4,4 15 8 N -
15.06.2018 15:00:00 19,8 5,7 18 10 NNW -
15.06.2018 14:00:00 19,5 5,1 21 11 NW 0,0
15.06.2018 13:00:00 18,8 4,5 21 11 N -
15.06.2018 12:00:00 17,6 4,8 15 8 N -
15.06.2018 11:00:00 16,3 5,8 22 12 NW -
15.06.2018 10:00:00 14,9 4,2 24 13 NW -
15.06.2018 09:00:00 13,7 5,0 26 14 NNW -
15.06.2018 08:00:00 11,2 6,3 11 6 WSW 0,0
15.06.2018 07:00:00 8,5 4,7 11 6 W -
15.06.2018 06:00:00 8,0 4,2 15 8 W -
15.06.2018 05:00:00 8,3 4,3 9 5 NW -
15.06.2018 04:00:00 9,2 4,6 13 7 WSW -
15.06.2018 03:00:00 9,8 5,1 13 7 WSW -
15.06.2018 02:00:00 10,9 5,4 15 8 SW -
15.06.2018 01:00:00 11,3 5,5 15 8 W -
15.06.2018 00:00:00 13,3 5,9 11 6 WNW -
14.06.2018 23:00:00 13,4 6,0 16 9 WNW -
14.06.2018 22:00:00 14,0 5,8 18 10 NW -
14.06.2018 21:00:00 14,8 5,5 13 7 WNW -
14.06.2018 20:00:00 16,5 4,8 21 11 NNW 0,0
14.06.2018 19:00:00 17,6 3,8 18 10 N -
14.06.2018 18:00:00 18,1 5,2 16 9 NNW -
14.06.2018 17:00:00 18,0 6,1 18 10 NE -
14.06.2018 16:00:00 17,9 6,7 15 8 WNW -
14.06.2018 15:00:00 17,2 6,6 28 15 N -
14.06.2018 14:00:00 16,5 6,3 26 14 NNW 0,0
14.06.2018 13:00:00 15,8 5,9 22 12 WNW -
14.06.2018 12:00:00 14,9 6,1 24 13 WNW -
14.06.2018 11:00:00 14,1 6,1 28 15 NNW -

tt = temperature
td = dewpoint
ff = wind speed
dd = wind direction
rr = precipitation

Next stations